createdAt,value
2023-03-16T00:01:08.466Z,4.03
2023-03-16T00:03:38.129Z,4.10
2023-03-16T00:06:09.822Z,4.00
2023-03-16T00:08:37.201Z,3.30
2023-03-16T00:11:06.966Z,4.20
2023-03-16T00:13:33.859Z,3.80
2023-03-16T00:16:07.867Z,3.90
2023-03-16T00:18:38.881Z,3.80
2023-03-16T00:21:06.748Z,3.50
2023-03-16T00:23:40.287Z,3.47
2023-03-16T00:26:13.155Z,3.10
2023-03-16T00:28:41.457Z,3.40
2023-03-16T00:31:14.680Z,3.50
2023-03-16T00:33:45.595Z,3.33
2023-03-16T00:36:12.970Z,3.20
2023-03-16T00:38:50.104Z,4.37
2023-03-16T00:41:17.435Z,4.00
2023-03-16T00:43:45.576Z,4.13
2023-03-16T00:46:18.671Z,4.20
2023-03-16T00:48:47.719Z,4.10
2023-03-16T00:51:17.596Z,3.77
2023-03-16T00:53:48.729Z,4.03
2023-03-16T00:56:20.223Z,3.40
2023-03-16T00:58:47.276Z,3.03
2023-03-16T01:01:20.296Z,2.80
2023-03-16T01:03:49.840Z,3.50
2023-03-16T01:06:20.651Z,2.80
2023-03-16T01:08:49.861Z,2.97
2023-03-16T01:11:20.879Z,3.30
2023-03-16T01:13:49.787Z,2.90
2023-03-16T01:16:19.450Z,3.07
2023-03-16T01:18:49.851Z,2.70
2023-03-16T01:21:16.853Z,2.57
2023-03-16T01:23:46.400Z,2.60
2023-03-16T01:26:16.544Z,3.20
2023-03-16T01:28:44.500Z,2.60
2023-03-16T01:31:14.476Z,3.10
2023-03-16T01:33:43.628Z,2.60
2023-03-16T01:36:23.964Z,2.43
2023-03-16T01:38:51.222Z,2.90
2023-03-16T01:41:18.294Z,3.27
2023-03-16T01:43:45.286Z,3.63
2023-03-16T01:46:20.126Z,2.57
2023-03-16T01:49:05.542Z,2.80
2023-03-16T01:51:46.783Z,2.77
2023-03-16T01:54:40.121Z,2.33
2023-03-16T01:57:11.731Z,2.50
2023-03-16T01:59:49.242Z,2.83
2023-03-16T02:02:24.256Z,2.63
2023-03-16T02:05:15.720Z,2.97
2023-03-16T02:07:49.901Z,2.10
2023-03-16T02:10:20.586Z,3.07
2023-03-16T02:12:49.806Z,3.03
2023-03-16T02:15:19.145Z,2.40
2023-03-16T02:17:48.054Z,3.10
2023-03-16T02:20:48.630Z,3.00
2023-03-16T02:23:19.698Z,2.53
2023-03-16T02:26:01.786Z,2.43
2023-03-16T02:28:48.616Z,2.93
2023-03-16T02:31:19.916Z,2.70
2023-03-16T02:33:48.955Z,3.40
2023-03-16T02:36:19.556Z,2.93
2023-03-16T02:38:49.283Z,2.67
2023-03-16T02:41:23.655Z,2.77
2023-03-16T02:44:25.435Z,2.90
2023-03-16T02:47:01.327Z,2.70
2023-03-16T02:49:39.155Z,2.50
2023-03-16T02:52:07.073Z,3.20
2023-03-16T02:54:36.474Z,2.93
2023-03-16T02:57:04.972Z,3.00
2023-03-16T02:59:31.981Z,3.20
2023-03-16T03:02:01.457Z,3.13
2023-03-16T03:04:28.397Z,3.17
2023-03-16T03:06:55.300Z,2.60
2023-03-16T03:09:24.634Z,2.90
2023-03-16T03:11:51.548Z,3.13
2023-03-16T03:14:18.495Z,2.97
2023-03-16T03:16:46.889Z,3.33
2023-03-16T03:19:16.423Z,3.07
2023-03-16T03:21:45.573Z,2.80
2023-03-16T03:24:12.658Z,3.17
2023-03-16T03:26:45.110Z,3.07
2023-03-16T03:29:12.625Z,3.20
2023-03-16T03:31:39.632Z,3.03
2023-03-16T03:34:06.954Z,2.90
2023-03-16T03:36:36.884Z,3.00
2023-03-16T03:39:06.734Z,2.53
2023-03-16T03:41:34.510Z,3.33
2023-03-16T03:44:01.721Z,2.33
2023-03-16T03:46:31.056Z,2.60
2023-03-16T03:49:03.842Z,2.87
2023-03-16T03:51:33.849Z,2.80
2023-03-16T03:54:03.461Z,2.70
2023-03-16T03:56:30.772Z,3.20
2023-03-16T03:59:00.169Z,2.70
2023-03-16T04:01:27.224Z,2.60
2023-03-16T04:03:54.338Z,2.53
2023-03-16T04:06:21.357Z,3.00
2023-03-16T04:08:51.319Z,2.80
2023-03-16T04:11:20.811Z,2.90
2023-03-16T04:13:48.079Z,3.13
2023-03-16T04:16:16.302Z,3.23
2023-03-16T04:18:45.111Z,3.30
2023-03-16T04:21:17.754Z,3.60
2023-03-16T04:23:47.854Z,3.83
2023-03-16T04:26:15.112Z,3.30
2023-03-16T04:28:43.345Z,2.73
2023-03-16T04:31:11.267Z,3.47
2023-03-16T04:33:39.624Z,2.67
2023-03-16T04:36:07.593Z,2.70
2023-03-16T04:38:40.387Z,2.87
2023-03-16T04:41:07.784Z,2.87
2023-03-16T04:43:37.044Z,3.00
2023-03-16T04:46:06.056Z,3.17
2023-03-16T04:48:33.093Z,3.30
2023-03-16T04:51:01.635Z,2.70
2023-03-16T04:53:28.778Z,3.07
2023-03-16T04:55:58.367Z,2.70
2023-03-16T04:58:28.205Z,3.20
2023-03-16T05:00:55.754Z,2.83
2023-03-16T05:03:23.146Z,2.90
2023-03-16T05:05:51.047Z,2.30
2023-03-16T05:08:23.130Z,2.17
2023-03-16T05:10:57.633Z,2.63
2023-03-16T05:13:26.942Z,2.53
2023-03-16T05:15:56.465Z,2.93
2023-03-16T05:18:27.082Z,2.87
2023-03-16T05:20:56.949Z,2.83
2023-03-16T05:23:24.212Z,2.80
2023-03-16T05:25:51.496Z,3.20
2023-03-16T05:28:18.387Z,3.83
2023-03-16T05:30:45.476Z,2.77
2023-03-16T05:33:15.029Z,3.70
2023-03-16T05:35:44.358Z,3.20
2023-03-16T05:38:13.120Z,2.97
2023-03-16T05:40:40.158Z,2.83
2023-03-16T05:43:07.026Z,3.50
2023-03-16T05:45:33.892Z,3.30
2023-03-16T05:48:05.681Z,2.77
2023-03-16T05:50:35.117Z,3.43
2023-03-16T05:53:02.001Z,3.30
2023-03-16T05:55:29.373Z,2.90
2023-03-16T05:57:56.418Z,3.43
2023-03-16T06:00:25.712Z,2.93
2023-03-16T06:02:52.811Z,3.20
2023-03-16T06:05:28.592Z,2.80
2023-03-16T06:07:55.551Z,2.90
2023-03-16T06:10:26.674Z,3.63
2023-03-16T06:12:53.670Z,2.63
2023-03-16T06:15:20.896Z,2.90
2023-03-16T06:17:48.850Z,2.80
2023-03-16T06:20:20.310Z,3.33
2023-03-16T06:22:49.401Z,3.37
2023-03-16T06:25:17.057Z,2.60
2023-03-16T06:27:46.461Z,3.10
2023-03-16T06:30:14.423Z,3.20
2023-03-16T06:32:42.510Z,4.77
2023-03-16T06:35:10.310Z,3.60
2023-03-16T06:37:39.621Z,3.00
2023-03-16T06:40:07.728Z,4.03
2023-03-16T06:42:37.124Z,3.40
2023-03-16T06:45:04.528Z,3.27
2023-03-16T06:47:32.188Z,3.00
2023-03-16T06:49:59.182Z,2.90
2023-03-16T06:52:28.301Z,3.33
2023-03-16T06:54:55.424Z,3.53
2023-03-16T06:57:25.273Z,3.50
2023-03-16T06:59:52.141Z,3.60
2023-03-16T07:02:19.986Z,3.00
2023-03-16T07:04:46.980Z,3.10
2023-03-16T07:07:13.916Z,2.83
2023-03-16T07:09:42.056Z,2.90
2023-03-16T07:12:09.841Z,2.50
2023-03-16T07:14:38.938Z,2.80
2023-03-16T07:17:06.483Z,2.50
2023-03-16T07:19:35.843Z,3.20
2023-03-16T07:22:07.287Z,2.80
2023-03-16T07:24:34.183Z,3.70
2023-03-16T07:27:01.919Z,2.83
2023-03-16T07:29:29.120Z,3.33
2023-03-16T07:31:58.488Z,3.00
2023-03-16T07:34:25.348Z,3.60
2023-03-16T07:36:52.876Z,3.40
2023-03-16T07:39:25.129Z,3.70
2023-03-16T07:41:55.071Z,3.20
2023-03-16T07:44:22.029Z,3.27
2023-03-16T07:46:48.905Z,3.40
2023-03-16T07:49:16.769Z,2.90
2023-03-16T07:51:46.766Z,3.97
2023-03-16T07:54:14.578Z,3.97
2023-03-16T07:56:49.578Z,3.53
2023-03-16T07:59:17.922Z,3.30
2023-03-16T08:01:46.350Z,2.90
2023-03-16T08:04:13.330Z,3.43
2023-03-16T08:06:40.447Z,3.27
2023-03-16T08:09:08.661Z,3.10
2023-03-16T08:11:41.526Z,3.33
2023-03-16T08:14:08.732Z,2.73
2023-03-16T08:16:36.658Z,3.20
2023-03-16T08:19:03.693Z,2.70
2023-03-16T08:21:30.697Z,2.83
2023-03-16T08:23:57.533Z,3.50
2023-03-16T08:26:26.490Z,2.93
2023-03-16T08:28:53.643Z,3.20
2023-03-16T08:31:23.425Z,2.73
2023-03-16T08:33:50.654Z,3.07
2023-03-16T08:36:21.167Z,3.00
2023-03-16T08:39:03.749Z,2.50
2023-03-16T08:41:34.649Z,2.53
2023-03-16T08:44:03.124Z,2.80
2023-03-16T08:46:31.086Z,2.90
2023-03-16T08:48:58.111Z,2.40
2023-03-16T08:51:25.038Z,2.77
2023-03-16T08:53:52.805Z,3.13
2023-03-16T08:56:19.686Z,2.63
2023-03-16T08:58:54.066Z,3.13
2023-03-16T09:01:21.070Z,3.70
2023-03-16T09:03:48.058Z,2.80
2023-03-16T09:06:19.870Z,2.33
2023-03-16T09:08:47.701Z,2.77
2023-03-16T09:11:18.822Z,2.57
2023-03-16T09:13:46.270Z,2.40
2023-03-16T09:16:18.950Z,2.47
2023-03-16T09:18:48.923Z,2.33
2023-03-16T09:21:21.081Z,2.77
2023-03-16T09:23:50.895Z,2.37
2023-03-16T09:26:22.763Z,2.10
2023-03-16T09:28:49.726Z,2.37
2023-03-16T09:31:19.885Z,2.23
2023-03-16T09:33:47.929Z,2.60
2023-03-16T09:36:15.722Z,2.23
2023-03-16T09:38:43.885Z,1.93
2023-03-16T09:41:45.461Z,2.10
2023-03-16T09:44:38.479Z,1.87
2023-03-16T09:47:09.234Z,2.40
2023-03-16T09:49:48.339Z,1.67
2023-03-16T09:52:57.652Z,2.13
2023-03-16T09:56:40.655Z,2.27
2023-03-16T10:00:03.856Z,1.40
2023-03-16T10:03:21.200Z,1.80
2023-03-16T10:05:56.049Z,1.50
2023-03-16T10:08:53.082Z,1.70
2023-03-16T10:11:34.650Z,1.27
2023-03-16T10:14:24.978Z,1.47
2023-03-16T10:17:24.070Z,1.10
2023-03-16T10:20:04.972Z,1.50
2023-03-16T10:22:35.879Z,0.93
2023-03-16T10:25:35.668Z,1.20
2023-03-16T10:28:05.129Z,1.47
2023-03-16T10:30:36.269Z,1.20
2023-03-16T10:33:26.687Z,0.97
2023-03-16T10:36:29.416Z,1.10
2023-03-16T10:39:06.985Z,1.07
2023-03-16T10:41:41.110Z,1.07
2023-03-16T10:44:15.157Z,1.63
2023-03-16T10:46:57.896Z,1.53
2023-03-16T10:49:28.593Z,1.30
2023-03-16T10:51:59.469Z,1.50
2023-03-16T10:54:39.936Z,1.30
2023-03-16T10:57:28.106Z,1.27
2023-03-16T11:00:00.853Z,1.00
2023-03-16T11:02:34.572Z,1.67
2023-03-16T11:05:32.191Z,1.20
2023-03-16T11:08:09.337Z,1.07
2023-03-16T11:10:49.524Z,1.10
2023-03-16T11:13:22.683Z,0.80
2023-03-16T11:16:11.406Z,0.87
2023-03-16T11:18:46.279Z,1.00
2023-03-16T11:21:30.283Z,1.40
2023-03-16T11:23:58.127Z,0.80
2023-03-16T11:26:36.511Z,1.20
2023-03-16T11:29:21.750Z,1.40
2023-03-16T11:31:57.978Z,0.80
2023-03-16T11:34:30.912Z,1.00
2023-03-16T11:37:13.091Z,1.20
2023-03-16T11:39:49.628Z,0.80
2023-03-16T11:42:33.110Z,1.33
2023-03-16T11:45:28.766Z,1.47
2023-03-16T11:48:20.372Z,1.10
2023-03-16T11:51:05.358Z,0.73
2023-03-16T11:53:38.286Z,1.00
2023-03-16T11:56:08.020Z,1.17
2023-03-16T11:59:11.925Z,1.27
2023-03-16T12:01:58.236Z,0.97
2023-03-16T12:05:16.761Z,1.00
2023-03-16T12:08:04.522Z,1.57
2023-03-16T12:10:50.492Z,1.00
2023-03-16T12:13:30.802Z,1.17
2023-03-16T12:16:10.898Z,1.07
2023-03-16T12:18:56.050Z,1.00
2023-03-16T12:21:32.466Z,1.00
2023-03-16T12:24:07.295Z,1.00
2023-03-16T12:26:41.518Z,1.10
2023-03-16T12:29:28.497Z,0.83
2023-03-16T12:32:17.217Z,1.03
2023-03-16T12:35:19.467Z,1.40
2023-03-16T12:38:05.956Z,1.13
2023-03-16T12:40:36.194Z,1.00
2023-03-16T12:43:42.774Z,1.20
2023-03-16T12:46:29.042Z,0.80
2023-03-16T12:49:06.858Z,1.17
2023-03-16T12:51:42.957Z,0.80
2023-03-16T12:54:25.377Z,1.10
2023-03-16T12:57:01.903Z,0.90
2023-03-16T12:59:50.666Z,0.90
2023-03-16T13:02:17.763Z,0.70
2023-03-16T13:04:50.552Z,0.83
2023-03-16T13:07:24.211Z,1.10
2023-03-16T13:10:09.954Z,0.80
2023-03-16T13:12:41.543Z,0.90
2023-03-16T13:15:22.102Z,1.10
2023-03-16T13:18:10.014Z,0.97
2023-03-16T13:21:00.898Z,1.00
2023-03-16T13:24:12.469Z,1.00
2023-03-16T13:26:43.895Z,0.90
2023-03-16T13:29:27.114Z,0.90
2023-03-16T13:32:01.836Z,1.00
2023-03-16T13:34:51.853Z,0.87
2023-03-16T13:37:21.650Z,0.87
2023-03-16T13:40:04.727Z,0.80
2023-03-16T13:42:38.614Z,0.73
2023-03-16T13:45:15.300Z,0.77
2023-03-16T13:47:46.049Z,0.80
2023-03-16T13:50:14.825Z,0.80
2023-03-16T13:52:58.664Z,0.77
2023-03-16T13:55:38.604Z,0.77
2023-03-16T13:58:21.499Z,0.77
2023-03-16T14:00:48.564Z,0.80
2023-03-16T14:03:19.215Z,0.80
2023-03-16T14:05:49.576Z,0.93
2023-03-16T14:08:23.606Z,0.80
2023-03-16T14:10:51.892Z,0.80
2023-03-16T14:13:29.643Z,1.07
2023-03-16T14:16:12.877Z,0.90
2023-03-16T14:18:52.081Z,0.70
2023-03-16T14:21:46.004Z,1.47
2023-03-16T14:24:30.803Z,1.03
2023-03-16T14:27:06.334Z,0.80
2023-03-16T14:29:33.516Z,1.00
2023-03-16T14:32:00.470Z,0.90
2023-03-16T14:34:35.151Z,0.83
2023-03-16T14:37:12.036Z,1.30
2023-03-16T14:39:42.164Z,1.00
2023-03-16T14:42:19.845Z,0.80
2023-03-16T14:44:48.121Z,0.90
2023-03-16T14:47:28.131Z,1.10
2023-03-16T14:49:58.936Z,0.90
2023-03-16T14:52:34.923Z,0.70
2023-03-16T14:55:10.819Z,0.80
2023-03-16T14:57:40.447Z,0.93
2023-03-16T15:00:15.359Z,0.70
2023-03-16T15:02:45.475Z,1.00
2023-03-16T15:05:29.551Z,0.70
2023-03-16T15:07:56.726Z,0.60
2023-03-16T15:10:30.345Z,1.40
2023-03-16T15:13:13.303Z,0.77
2023-03-16T15:15:42.517Z,0.90
2023-03-16T15:18:14.000Z,1.50
2023-03-16T15:20:43.902Z,0.80
2023-03-16T15:23:20.652Z,0.90
2023-03-16T15:25:51.704Z,0.90
2023-03-16T15:28:24.959Z,0.70
2023-03-16T15:30:55.060Z,0.77
2023-03-16T15:33:27.711Z,0.90
2023-03-16T15:35:57.749Z,1.07
2023-03-16T15:38:34.575Z,1.03
2023-03-16T15:41:01.956Z,1.20
2023-03-16T15:43:32.193Z,0.80
2023-03-16T15:46:04.699Z,0.87
2023-03-16T15:48:32.597Z,0.87
2023-03-16T15:51:09.619Z,0.80
2023-03-16T15:53:52.568Z,0.60
2023-03-16T15:56:29.709Z,0.80
2023-03-16T15:59:02.616Z,0.90
2023-03-16T16:01:39.733Z,1.20
2023-03-16T16:04:13.685Z,0.93
2023-03-16T16:06:41.232Z,0.67
2023-03-16T16:09:10.707Z,1.13
2023-03-16T16:11:41.254Z,0.80
2023-03-16T16:14:15.608Z,1.20
2023-03-16T16:16:46.178Z,1.00
2023-03-16T16:19:18.762Z,1.17
2023-03-16T16:21:50.373Z,1.27
2023-03-16T16:24:18.376Z,0.93
2023-03-16T16:26:54.114Z,0.70
2023-03-16T16:29:30.633Z,1.00
2023-03-16T16:31:57.782Z,1.20
2023-03-16T16:34:27.951Z,1.00
2023-03-16T16:37:00.687Z,1.03
2023-03-16T16:39:30.898Z,1.40
2023-03-16T16:41:57.931Z,1.00
2023-03-16T16:44:33.429Z,1.20
2023-03-16T16:47:03.481Z,1.20
2023-03-16T16:49:31.355Z,1.10
2023-03-16T16:51:59.284Z,1.30
2023-03-16T16:54:29.823Z,1.20
2023-03-16T16:56:58.810Z,1.23
2023-03-16T16:59:31.263Z,0.80
2023-03-16T17:02:00.927Z,0.90
2023-03-16T17:04:29.567Z,1.10
2023-03-16T17:07:01.936Z,1.10
2023-03-16T17:09:30.638Z,1.30
2023-03-16T17:12:02.123Z,1.73
2023-03-16T17:14:31.023Z,1.30
2023-03-16T17:17:05.026Z,1.13
2023-03-16T17:19:32.780Z,1.20
2023-03-16T17:21:59.892Z,1.63
2023-03-16T17:24:29.972Z,1.93
2023-03-16T17:27:00.740Z,1.43
2023-03-16T17:29:34.408Z,1.30
2023-03-16T17:32:04.578Z,1.40
2023-03-16T17:34:34.254Z,1.50
2023-03-16T17:37:03.687Z,1.83
2023-03-16T17:39:35.623Z,1.23
2023-03-16T17:42:14.263Z,1.30
2023-03-16T17:44:45.534Z,1.70
2023-03-16T17:47:19.824Z,1.80
2023-03-16T17:49:50.843Z,1.60
2023-03-16T17:52:25.659Z,2.10
2023-03-16T17:54:56.561Z,1.67
2023-03-16T17:57:29.833Z,1.90
2023-03-16T18:00:00.677Z,1.87
2023-03-16T18:02:55.941Z,2.37
2023-03-16T18:05:34.796Z,1.77
2023-03-16T18:08:27.672Z,1.60
2023-03-16T18:11:04.688Z,1.60
2023-03-16T18:13:35.481Z,2.37
2023-03-16T18:16:05.860Z,2.20
2023-03-16T18:18:37.449Z,2.30
2023-03-16T18:21:08.773Z,2.30
2023-03-16T18:23:36.885Z,2.30
2023-03-16T18:26:04.223Z,2.40
2023-03-16T18:28:32.037Z,1.80
2023-03-16T18:31:02.181Z,1.50
2023-03-16T18:33:36.303Z,2.57
2023-03-16T18:36:07.766Z,2.00
2023-03-16T18:38:39.806Z,1.77
2023-03-16T18:41:29.158Z,2.37
2023-03-16T18:44:00.305Z,2.10
2023-03-16T18:46:34.279Z,2.17
2023-03-16T18:49:41.626Z,2.30
2023-03-16T18:52:23.737Z,1.70
2023-03-16T18:54:52.852Z,2.13
2023-03-16T18:57:22.667Z,1.80
2023-03-16T18:59:50.116Z,1.80
2023-03-16T19:02:29.675Z,1.93
2023-03-16T19:05:31.700Z,2.30
2023-03-16T19:08:07.305Z,2.00
2023-03-16T19:10:39.095Z,2.00
2023-03-16T19:13:21.531Z,2.33
2023-03-16T19:15:53.345Z,2.20
2023-03-16T19:18:21.245Z,1.93
2023-03-16T19:20:52.498Z,1.80
2023-03-16T19:23:34.623Z,1.47
2023-03-16T19:26:01.667Z,2.67
2023-03-16T19:28:37.200Z,2.17
2023-03-16T19:31:16.511Z,2.13
2023-03-16T19:33:43.581Z,1.83
2023-03-16T19:36:24.112Z,2.10
2023-03-16T19:38:54.401Z,1.90
2023-03-16T19:41:39.627Z,2.03
2023-03-16T19:44:28.517Z,1.97
2023-03-16T19:47:04.883Z,2.27
2023-03-16T19:49:31.886Z,2.10
2023-03-16T19:51:59.085Z,1.77
2023-03-16T19:54:28.622Z,1.97
2023-03-16T19:57:02.038Z,2.70
2023-03-16T19:59:35.987Z,2.53
2023-03-16T20:02:03.007Z,1.83
2023-03-16T20:04:30.654Z,2.13
2023-03-16T20:06:58.741Z,2.57
2023-03-16T20:09:26.197Z,2.00
2023-03-16T20:11:53.784Z,1.67
2023-03-16T20:14:31.850Z,2.63
2023-03-16T20:17:01.991Z,2.40
2023-03-16T20:19:29.655Z,1.83
2023-03-16T20:21:56.566Z,1.80
2023-03-16T20:24:24.597Z,1.87
2023-03-16T20:26:54.018Z,1.80
2023-03-16T20:29:32.734Z,2.10
2023-03-16T20:32:16.954Z,1.67
2023-03-16T20:34:44.109Z,2.40
2023-03-16T20:37:29.247Z,1.70
2023-03-16T20:40:00.782Z,2.17
2023-03-16T20:42:32.791Z,1.80
2023-03-16T20:45:00.259Z,2.03
2023-03-16T20:47:29.605Z,1.87
2023-03-16T20:50:00.235Z,2.60
2023-03-16T20:52:31.024Z,1.90
2023-03-16T20:54:58.571Z,2.33
2023-03-16T20:57:29.042Z,2.10
2023-03-16T20:59:56.488Z,2.37
2023-03-16T21:02:39.734Z,2.33
2023-03-16T21:05:07.925Z,2.20
2023-03-16T21:07:37.958Z,2.60
2023-03-16T21:10:05.358Z,1.67
2023-03-16T21:12:38.023Z,2.50
2023-03-16T21:15:29.334Z,2.47
2023-03-16T21:18:07.246Z,2.23
2023-03-16T21:20:35.868Z,2.00
2023-03-16T21:23:03.471Z,2.30
2023-03-16T21:25:45.282Z,1.77
2023-03-16T21:28:15.021Z,1.77
2023-03-16T21:31:00.756Z,2.30
2023-03-16T21:33:30.270Z,2.17
2023-03-16T21:36:03.954Z,1.93
2023-03-16T21:38:34.328Z,2.10
2023-03-16T21:41:01.424Z,2.50
2023-03-16T21:43:31.185Z,2.70
2023-03-16T21:45:59.607Z,2.63
2023-03-16T21:48:39.604Z,2.60
2023-03-16T21:51:19.033Z,1.87
2023-03-16T21:53:50.019Z,2.47
2023-03-16T21:56:22.811Z,2.43
2023-03-16T21:58:50.191Z,2.20
2023-03-16T22:01:32.290Z,2.03
2023-03-16T22:04:09.887Z,2.63
2023-03-16T22:06:36.754Z,2.40
2023-03-16T22:09:04.262Z,1.90
2023-03-16T22:11:31.358Z,1.80
2023-03-16T22:14:01.917Z,2.07
2023-03-16T22:16:36.004Z,2.17
2023-03-16T22:19:08.629Z,2.73
2023-03-16T22:21:43.240Z,2.80
2023-03-16T22:24:21.042Z,2.40
2023-03-16T22:26:49.006Z,2.60
2023-03-16T22:29:25.306Z,2.47
2023-03-16T22:32:03.043Z,2.60
2023-03-16T22:34:42.039Z,2.70
2023-03-16T22:37:11.129Z,3.03
2023-03-16T22:39:43.769Z,2.60
2023-03-16T22:42:16.718Z,2.87
2023-03-16T22:44:43.623Z,2.33
2023-03-16T22:47:36.719Z,2.20
2023-03-16T22:50:03.730Z,2.53
2023-03-16T22:52:37.265Z,3.07
2023-03-16T22:55:05.981Z,2.60
2023-03-16T22:57:35.531Z,2.70
2023-03-16T23:00:06.938Z,2.67
2023-03-16T23:02:33.795Z,2.63
2023-03-16T23:05:00.685Z,2.67
2023-03-16T23:07:27.587Z,3.10
2023-03-16T23:10:00.371Z,2.30
2023-03-16T23:12:27.277Z,2.97
2023-03-16T23:14:58.847Z,2.60
2023-03-16T23:17:27.724Z,2.50
2023-03-16T23:19:57.034Z,2.73
2023-03-16T23:22:23.845Z,2.90
2023-03-16T23:24:53.241Z,3.00
2023-03-16T23:27:22.718Z,3.17
2023-03-16T23:29:49.914Z,3.03
2023-03-16T23:32:19.776Z,2.83
2023-03-16T23:34:46.942Z,3.00
2023-03-16T23:37:16.302Z,3.00
2023-03-16T23:39:45.671Z,3.00
2023-03-16T23:42:14.998Z,2.60
2023-03-16T23:44:45.408Z,2.70
2023-03-16T23:47:12.546Z,3.40
2023-03-16T23:49:42.848Z,3.20
2023-03-16T23:52:13.378Z,2.87
2023-03-16T23:54:40.586Z,3.27
2023-03-16T23:57:11.489Z,2.77
2023-03-16T23:59:38.378Z,2.80
